createdAt,value
2017-09-08T00:01:27.889Z,5.17
2017-09-08T00:03:56.366Z,5.13
2017-09-08T00:06:24.825Z,4.90
2017-09-08T00:08:54.073Z,5.00
2017-09-08T00:11:22.530Z,5.20
2017-09-08T00:13:50.985Z,5.87
2017-09-08T00:16:20.230Z,6.17
2017-09-08T00:18:48.693Z,6.57
2017-09-08T00:21:17.137Z,6.40
2017-09-08T00:23:46.417Z,6.07
2017-09-08T00:26:15.657Z,5.90
2017-09-08T00:28:44.109Z,5.13
2017-09-08T00:31:13.357Z,5.60
2017-09-08T00:33:41.805Z,4.43
2017-09-08T00:36:10.267Z,5.17
2017-09-08T00:38:39.516Z,4.00
2017-09-08T00:41:07.973Z,4.43
2017-09-08T00:43:36.432Z,5.10
2017-09-08T00:46:04.564Z,4.97
2017-09-08T00:48:32.684Z,4.50
2017-09-08T00:51:01.124Z,5.50
2017-09-08T00:53:29.623Z,5.13
2017-09-08T00:55:58.146Z,4.80
2017-09-08T00:58:26.611Z,4.53
2017-09-08T01:00:54.790Z,5.17
2017-09-08T01:03:23.261Z,5.63
2017-09-08T01:05:51.723Z,4.53
2017-09-08T01:08:21.016Z,4.70
2017-09-08T01:10:49.891Z,4.87
2017-09-08T01:13:19.111Z,4.97
2017-09-08T01:15:47.254Z,4.63
2017-09-08T01:18:15.718Z,5.33
2017-09-08T01:20:44.150Z,5.17
2017-09-08T01:23:12.625Z,3.67
2017-09-08T01:25:41.197Z,5.00
2017-09-08T01:28:10.412Z,5.70
2017-09-08T01:30:39.000Z,5.17
2017-09-08T01:33:07.453Z,5.07
2017-09-08T01:35:36.509Z,4.43
2017-09-08T01:38:05.023Z,3.97
2017-09-08T01:40:34.249Z,4.33
2017-09-08T01:43:02.716Z,4.80
2017-09-08T01:45:31.197Z,5.03
2017-09-08T01:47:59.653Z,4.90
2017-09-08T01:50:28.894Z,4.83
2017-09-08T01:52:57.201Z,4.67
2017-09-08T01:55:25.661Z,5.20
2017-09-08T01:57:54.117Z,4.87
2017-09-08T02:00:22.609Z,4.90
2017-09-08T02:02:51.076Z,4.57
2017-09-08T02:05:19.524Z,5.37
2017-09-08T02:07:48.777Z,4.80
2017-09-08T02:10:17.228Z,4.43
2017-09-08T02:12:45.689Z,4.60
2017-09-08T02:15:14.932Z,4.27
2017-09-08T02:17:43.386Z,4.27
2017-09-08T02:20:11.852Z,5.40
2017-09-08T02:22:41.088Z,6.40
2017-09-08T02:25:09.711Z,7.70
2017-09-08T02:27:38.196Z,7.87
2017-09-08T02:30:07.430Z,7.07
2017-09-08T02:32:35.942Z,8.17
2017-09-08T02:35:04.384Z,7.40
2017-09-08T02:37:32.852Z,7.23
2017-09-08T02:40:02.095Z,7.83
2017-09-08T02:42:30.527Z,7.37
2017-09-08T02:44:59.762Z,6.47
2017-09-08T02:47:28.238Z,6.43
2017-09-08T02:49:56.737Z,6.00
2017-09-08T02:52:25.189Z,6.50
2017-09-08T02:54:53.667Z,6.00
2017-09-08T02:57:22.107Z,6.37
2017-09-08T02:59:51.345Z,6.60
2017-09-08T03:02:19.829Z,6.13
2017-09-08T03:04:48.285Z,5.90
2017-09-08T03:07:17.553Z,7.20
2017-09-08T03:09:45.990Z,5.97
2017-09-08T03:12:14.484Z,5.23
2017-09-08T03:14:42.933Z,6.27
2017-09-08T03:17:11.377Z,5.00
2017-09-08T03:19:40.588Z,5.40
2017-09-08T03:22:09.049Z,5.30
2017-09-08T03:24:37.544Z,5.43
2017-09-08T03:27:06.775Z,5.40
2017-09-08T03:29:35.245Z,4.77
2017-09-08T03:32:03.697Z,5.27
2017-09-08T03:34:32.933Z,4.70
2017-09-08T03:37:01.425Z,4.33
2017-09-08T03:39:29.896Z,5.30
2017-09-08T03:41:58.370Z,5.27
2017-09-08T03:44:26.861Z,4.80
2017-09-08T03:46:55.639Z,4.80
2017-09-08T03:49:24.124Z,4.80
2017-09-08T03:51:52.622Z,4.97
2017-09-08T03:54:21.152Z,4.47
2017-09-08T03:56:50.376Z,4.27
2017-09-08T03:59:18.958Z,4.40
2017-09-08T04:01:47.399Z,5.30
2017-09-08T04:04:16.632Z,4.37
2017-09-08T04:06:45.095Z,5.23
2017-09-08T04:09:13.593Z,4.03
2017-09-08T04:11:42.041Z,4.50
2017-09-08T04:14:11.263Z,4.37
2017-09-08T04:16:39.715Z,4.30
2017-09-08T04:19:08.761Z,4.07
2017-09-08T04:21:37.233Z,4.87
2017-09-08T04:24:05.681Z,4.13
2017-09-08T04:26:34.898Z,4.70
2017-09-08T04:29:03.370Z,4.30
2017-09-08T04:31:31.822Z,4.67
2017-09-08T04:34:01.029Z,5.50
2017-09-08T04:36:30.303Z,4.20
2017-09-08T04:38:58.835Z,6.07
2017-09-08T04:41:27.285Z,3.90
2017-09-08T04:43:56.307Z,4.30
2017-09-08T04:46:24.775Z,4.97
2017-09-08T04:48:54.003Z,4.40
2017-09-08T04:51:22.445Z,4.97
2017-09-08T04:53:51.761Z,4.93
2017-09-08T04:56:20.209Z,4.70
2017-09-08T04:58:49.449Z,4.73
2017-09-08T05:01:17.898Z,4.10
2017-09-08T05:03:46.336Z,4.30
2017-09-08T05:06:14.796Z,4.03
2017-09-08T05:08:43.239Z,4.47
2017-09-08T05:11:11.838Z,4.60
2017-09-08T05:13:40.108Z,4.03
2017-09-08T05:16:08.564Z,4.43
2017-09-08T05:18:37.764Z,4.90
2017-09-08T05:21:07.766Z,4.03
2017-09-08T05:23:37.095Z,4.70
2017-09-08T05:26:05.584Z,4.50
2017-09-08T05:28:34.064Z,5.23
2017-09-08T05:31:02.544Z,4.60
2017-09-08T05:33:31.034Z,4.87
2017-09-08T05:35:59.572Z,3.93
2017-09-08T05:38:29.081Z,3.87
2017-09-08T05:40:57.568Z,3.97
2017-09-08T05:43:26.096Z,6.40
2017-09-08T05:45:54.920Z,5.53
2017-09-08T05:48:24.144Z,3.93
2017-09-08T05:50:52.652Z,4.60
2017-09-08T05:53:21.123Z,4.50
2017-09-08T05:55:49.611Z,5.43
2017-09-08T05:58:18.336Z,4.20
2017-09-08T06:00:46.796Z,4.90
2017-09-08T06:03:15.258Z,4.50
2017-09-08T06:05:43.748Z,4.23
2017-09-08T06:08:12.198Z,4.53
2017-09-08T06:10:40.647Z,4.20
2017-09-08T06:13:09.115Z,4.80
2017-09-08T06:15:37.569Z,3.70
2017-09-08T06:18:06.033Z,4.43
2017-09-08T06:20:34.497Z,5.07
2017-09-08T06:23:02.964Z,4.80
2017-09-08T06:25:34.031Z,3.70
2017-09-08T06:28:02.498Z,3.30
2017-09-08T06:30:30.976Z,4.60
2017-09-08T06:32:59.476Z,3.50
2017-09-08T06:35:28.038Z,3.70
2017-09-08T06:37:56.646Z,4.13
2017-09-08T06:40:25.205Z,4.33
2017-09-08T06:42:53.695Z,3.80
2017-09-08T06:45:22.169Z,3.83
2017-09-08T06:47:50.638Z,3.57
2017-09-08T06:50:19.186Z,3.90
2017-09-08T06:52:48.472Z,3.30
2017-09-08T06:55:16.948Z,4.30
2017-09-08T06:57:45.416Z,3.97
2017-09-08T07:00:13.882Z,3.30
2017-09-08T07:02:42.299Z,3.13
2017-09-08T07:05:11.564Z,3.50
2017-09-08T07:07:40.008Z,3.70
2017-09-08T07:10:08.455Z,3.03
2017-09-08T07:12:37.695Z,3.10
2017-09-08T07:15:06.145Z,3.33
2017-09-08T07:17:35.342Z,3.73
2017-09-08T07:20:04.583Z,3.70
2017-09-08T07:22:33.042Z,2.80
2017-09-08T07:25:01.498Z,2.67
2017-09-08T07:27:30.741Z,4.00
2017-09-08T07:29:59.189Z,3.03
2017-09-08T07:32:27.647Z,3.20
2017-09-08T07:34:56.897Z,3.63
2017-09-08T07:37:25.339Z,2.70
2017-09-08T07:39:54.554Z,3.00
2017-09-08T07:42:23.056Z,2.87
2017-09-08T07:44:51.509Z,2.60
2017-09-08T07:47:19.977Z,2.67
2017-09-08T07:49:49.220Z,2.80
2017-09-08T07:52:17.765Z,2.43
2017-09-08T07:54:46.463Z,3.60
2017-09-08T07:57:15.456Z,2.60
2017-09-08T07:59:44.447Z,2.80
2017-09-08T08:02:12.996Z,3.30
2017-09-08T08:04:42.239Z,2.97
2017-09-08T08:07:10.690Z,2.63
2017-09-08T08:09:39.702Z,2.87
2017-09-08T08:12:08.215Z,2.30
2017-09-08T08:14:36.724Z,2.83
2017-09-08T08:17:05.760Z,2.13
2017-09-08T08:19:34.650Z,2.50
2017-09-08T08:22:03.157Z,2.60
2017-09-08T08:24:31.688Z,3.00
2017-09-08T08:27:00.290Z,2.57
2017-09-08T08:29:28.744Z,2.47
2017-09-08T08:31:58.044Z,3.20
2017-09-08T08:34:26.514Z,2.60
2017-09-08T08:36:55.380Z,2.30
2017-09-08T08:39:23.829Z,1.90
2017-09-08T08:41:52.296Z,2.80
2017-09-08T08:44:20.752Z,2.40
2017-09-08T08:46:49.228Z,2.90
2017-09-08T08:49:18.466Z,2.10
2017-09-08T08:51:46.927Z,2.27
2017-09-08T08:54:15.406Z,2.20
2017-09-08T08:56:43.831Z,1.90
2017-09-08T08:59:12.298Z,2.50
2017-09-08T09:01:40.847Z,1.93
2017-09-08T09:04:09.341Z,2.50
2017-09-08T09:06:37.807Z,2.53
2017-09-08T09:09:06.258Z,2.70
2017-09-08T09:11:34.743Z,2.30
2017-09-08T09:14:03.189Z,2.77
2017-09-08T09:16:31.709Z,2.13
2017-09-08T09:19:00.173Z,2.33
2017-09-08T09:21:29.140Z,2.67
2017-09-08T09:23:58.414Z,2.30
2017-09-08T09:26:26.979Z,2.27
2017-09-08T09:28:55.429Z,2.50
2017-09-08T09:31:24.744Z,2.50
2017-09-08T09:33:53.237Z,2.50
2017-09-08T09:36:21.691Z,2.60
2017-09-08T09:38:50.195Z,2.10
2017-09-08T09:41:18.779Z,2.77
2017-09-08T09:43:47.202Z,2.03
2017-09-08T09:46:15.738Z,3.30
2017-09-08T09:48:44.220Z,2.27
2017-09-08T09:51:13.564Z,2.70
2017-09-08T09:53:42.088Z,2.60
2017-09-08T09:56:10.572Z,2.40
2017-09-08T09:58:39.050Z,2.73
2017-09-08T10:01:07.526Z,2.53
2017-09-08T10:03:36.026Z,1.80
2017-09-08T10:06:04.483Z,2.37
2017-09-08T10:08:33.130Z,3.20
2017-09-08T10:11:02.361Z,2.77
2017-09-08T10:13:31.577Z,2.47
2017-09-08T10:16:00.034Z,2.70
2017-09-08T10:18:29.264Z,2.30
2017-09-08T10:20:57.631Z,2.63
2017-09-08T10:23:26.081Z,3.10
2017-09-08T10:25:55.307Z,2.50
2017-09-08T10:28:23.921Z,2.47
2017-09-08T10:30:52.365Z,2.30
2017-09-08T10:33:20.850Z,2.53
2017-09-08T10:35:49.320Z,2.70
2017-09-08T10:38:17.761Z,2.87
2017-09-08T10:40:47.016Z,2.57
2017-09-08T10:43:15.267Z,2.50
2017-09-08T10:45:43.780Z,2.77
2017-09-08T10:48:12.457Z,2.13
2017-09-08T10:50:40.950Z,2.60
2017-09-08T10:53:09.401Z,2.93
2017-09-08T10:55:37.860Z,3.37
2017-09-08T10:58:07.085Z,2.80
2017-09-08T11:00:35.544Z,2.50
2017-09-08T11:03:04.072Z,3.00
2017-09-08T11:05:32.541Z,3.03
2017-09-08T11:08:01.053Z,2.50
2017-09-08T11:10:29.532Z,2.00
2017-09-08T11:12:57.968Z,2.50
2017-09-08T11:15:26.442Z,2.17
2017-09-08T11:17:54.904Z,2.73
2017-09-08T11:20:24.118Z,2.80
2017-09-08T11:22:52.589Z,2.40
2017-09-08T11:25:21.116Z,3.07
2017-09-08T11:27:49.563Z,2.17
2017-09-08T11:30:18.018Z,2.77
2017-09-08T11:32:52.730Z,3.00
2017-09-08T11:35:27.457Z,2.60
2017-09-08T11:37:56.015Z,2.50
2017-09-08T11:40:24.553Z,3.57
2017-09-08T11:42:53.013Z,2.40
2017-09-08T11:45:21.541Z,2.87
2017-09-08T11:47:49.984Z,2.93
2017-09-08T11:50:18.445Z,2.40
2017-09-08T11:52:47.876Z,2.70
2017-09-08T11:55:18.021Z,2.60
2017-09-08T11:57:45.797Z,2.63
2017-09-08T12:00:14.305Z,2.90
2017-09-08T12:02:42.784Z,2.47
2017-09-08T12:05:12.015Z,2.20
2017-09-08T12:07:40.516Z,2.33
2017-09-08T12:10:08.976Z,2.13
2017-09-08T12:12:37.436Z,2.47
2017-09-08T12:15:05.948Z,2.70
2017-09-08T12:17:34.396Z,2.70
2017-09-08T12:20:02.855Z,2.43
2017-09-08T12:22:32.096Z,2.67
2017-09-08T12:25:00.549Z,2.63
2017-09-08T12:27:29.756Z,2.80
2017-09-08T12:29:58.230Z,2.30
2017-09-08T12:32:26.680Z,3.27
2017-09-08T12:34:55.141Z,2.30
2017-09-08T12:37:23.567Z,2.60
2017-09-08T12:39:51.983Z,2.70
2017-09-08T12:42:20.419Z,2.43
2017-09-08T12:44:49.653Z,2.60
2017-09-08T12:47:18.069Z,2.67
2017-09-08T12:49:46.518Z,2.80
2017-09-08T12:52:14.987Z,2.90
2017-09-08T12:54:43.433Z,2.70
2017-09-08T12:57:12.397Z,2.97
2017-09-08T12:59:40.859Z,3.00
2017-09-08T13:02:09.325Z,2.60
2017-09-08T13:04:37.799Z,2.70
2017-09-08T13:07:06.293Z,2.17
2017-09-08T13:09:34.752Z,3.07
2017-09-08T13:12:03.204Z,2.73
2017-09-08T13:14:32.487Z,2.17
2017-09-08T13:17:01.689Z,2.40
2017-09-08T13:19:30.925Z,2.50
2017-09-08T13:21:59.296Z,3.17
2017-09-08T13:24:27.870Z,2.70
2017-09-08T13:26:56.292Z,3.30
2017-09-08T13:29:24.772Z,2.37
2017-09-08T13:31:53.224Z,2.70
2017-09-08T13:34:21.674Z,2.47
2017-09-08T13:36:50.900Z,2.90
2017-09-08T13:39:19.661Z,2.50
2017-09-08T13:41:48.110Z,2.77
2017-09-08T13:44:16.592Z,2.83
2017-09-08T13:46:45.042Z,2.40
2017-09-08T13:49:13.482Z,2.17
2017-09-08T13:51:41.840Z,3.17
2017-09-08T13:54:11.063Z,2.73
2017-09-08T13:56:39.516Z,2.40
2017-09-08T13:59:08.222Z,3.40
2017-09-08T14:01:36.684Z,2.60
2017-09-08T14:04:05.905Z,2.60
2017-09-08T14:06:34.389Z,2.93
2017-09-08T14:09:02.839Z,2.93
2017-09-08T14:11:32.057Z,3.00
2017-09-08T14:14:00.529Z,2.47
2017-09-08T14:16:28.275Z,2.40
2017-09-08T14:18:57.485Z,2.97
2017-09-08T14:21:26.721Z,2.80
2017-09-08T14:23:55.177Z,2.83
2017-09-08T14:26:23.629Z,3.00
2017-09-08T14:28:52.873Z,2.93
2017-09-08T14:31:21.329Z,2.80
2017-09-08T14:33:49.793Z,3.17
2017-09-08T14:36:19.029Z,2.93
2017-09-08T14:38:47.472Z,2.60
2017-09-08T14:41:16.705Z,2.70
2017-09-08T14:43:45.356Z,3.07
2017-09-08T14:46:13.849Z,3.03
2017-09-08T14:48:42.401Z,3.43
2017-09-08T14:51:11.849Z,3.63
2017-09-08T14:53:40.382Z,2.90
2017-09-08T14:56:08.864Z,2.90
2017-09-08T14:58:38.094Z,2.57
2017-09-08T15:01:06.756Z,2.60
2017-09-08T15:03:35.220Z,3.03
2017-09-08T15:06:03.336Z,2.90
2017-09-08T15:08:31.828Z,2.60
2017-09-08T15:11:00.264Z,2.50
2017-09-08T15:13:28.920Z,2.43
2017-09-08T15:15:57.427Z,2.70
2017-09-08T15:18:26.632Z,2.97
2017-09-08T15:20:55.954Z,3.33
2017-09-08T15:23:24.468Z,3.23
2017-09-08T15:25:52.950Z,2.57
2017-09-08T15:28:21.421Z,2.97
2017-09-08T15:30:49.889Z,2.53
2017-09-08T15:33:18.378Z,2.90
2017-09-08T15:35:46.841Z,3.30
2017-09-08T15:38:15.277Z,3.10
2017-09-08T15:40:44.541Z,2.90
2017-09-08T15:43:13.013Z,3.20
2017-09-08T15:45:41.427Z,3.20
2017-09-08T15:48:09.861Z,3.63
2017-09-08T15:50:38.317Z,3.03
2017-09-08T15:53:06.785Z,2.80
2017-09-08T15:55:35.889Z,2.77
2017-09-08T15:58:04.354Z,3.27
2017-09-08T16:00:33.601Z,3.27
2017-09-08T16:03:02.053Z,3.20
2017-09-08T16:05:30.512Z,2.77
2017-09-08T16:07:59.724Z,3.00
2017-09-08T16:10:28.192Z,3.60
2017-09-08T16:12:57.630Z,2.70
2017-09-08T16:15:25.917Z,3.60
2017-09-08T16:17:54.475Z,3.57
2017-09-08T16:20:22.955Z,3.80
2017-09-08T16:22:51.418Z,3.40
2017-09-08T16:25:20.017Z,3.17
2017-09-08T16:27:49.308Z,3.13
2017-09-08T16:30:17.793Z,4.07
2017-09-08T16:32:45.884Z,4.07
2017-09-08T16:35:14.449Z,3.67
2017-09-08T16:37:43.068Z,3.23
2017-09-08T16:40:11.528Z,2.80
2017-09-08T16:42:40.002Z,4.13
2017-09-08T16:45:08.464Z,3.90
2017-09-08T16:47:36.947Z,4.10
2017-09-08T16:50:05.419Z,3.83
2017-09-08T16:52:33.654Z,3.57
2017-09-08T16:55:02.072Z,3.80
2017-09-08T16:57:30.564Z,3.53
2017-09-08T16:59:59.321Z,3.90
2017-09-08T17:02:28.549Z,3.90
2017-09-08T17:04:57.020Z,4.20
2017-09-08T17:07:25.503Z,3.40
2017-09-08T17:09:54.001Z,3.60
2017-09-08T17:12:22.493Z,4.30
2017-09-08T17:14:51.028Z,3.47
2017-09-08T17:17:19.585Z,3.03
2017-09-08T17:19:48.895Z,3.47
2017-09-08T17:22:18.177Z,3.57
2017-09-08T17:24:47.068Z,4.37
2017-09-08T17:27:15.417Z,3.63
2017-09-08T17:29:43.876Z,4.33
2017-09-08T17:32:12.341Z,3.73
2017-09-08T17:34:40.914Z,3.43
2017-09-08T17:37:09.373Z,3.93
2017-09-08T17:39:37.856Z,3.13
2017-09-08T17:42:07.192Z,3.40
2017-09-08T17:44:35.652Z,3.30
2017-09-08T17:47:04.127Z,2.93
2017-09-08T17:49:33.376Z,4.97
2017-09-08T17:52:01.832Z,5.60
2017-09-08T17:54:30.343Z,4.10
2017-09-08T17:56:58.808Z,4.60
2017-09-08T17:59:27.277Z,5.30
2017-09-08T18:01:55.749Z,5.20
2017-09-08T18:04:24.235Z,5.00
2017-09-08T18:06:52.709Z,5.70
2017-09-08T18:09:21.171Z,5.47
2017-09-08T18:11:49.695Z,4.80
2017-09-08T18:14:18.257Z,4.30
2017-09-08T18:16:46.718Z,4.70
2017-09-08T18:19:15.233Z,5.47
2017-09-08T18:21:43.693Z,4.83
2017-09-08T18:24:11.961Z,4.70
2017-09-08T18:26:40.444Z,4.30
2017-09-08T18:29:13.681Z,4.70
2017-09-08T18:31:42.315Z,4.00
2017-09-08T18:34:14.285Z,4.23
2017-09-08T18:36:45.352Z,4.67
2017-09-08T18:39:15.956Z,4.90
2017-09-08T18:41:48.419Z,5.60
2017-09-08T18:44:17.437Z,6.33
2017-09-08T18:46:49.681Z,13.93
2017-09-08T18:49:18.146Z,16.97
2017-09-08T18:51:46.629Z,27.30
2017-09-08T18:54:15.125Z,30.17
2017-09-08T18:56:43.600Z,28.50
2017-09-08T18:59:12.065Z,24.60
2017-09-08T19:01:40.553Z,28.47
2017-09-08T19:04:09.013Z,24.73
2017-09-08T19:06:38.281Z,24.17
2017-09-08T19:09:06.761Z,29.17
2017-09-08T19:11:35.273Z,24.63
2017-09-08T19:14:04.546Z,11.00
2017-09-08T19:16:33.026Z,14.17
2017-09-08T19:19:01.494Z,11.97
2017-09-08T19:21:29.956Z,7.07
2017-09-08T19:23:58.524Z,5.97
2017-09-08T19:26:26.964Z,5.50
2017-09-08T19:28:56.158Z,5.97
2017-09-08T19:31:25.420Z,5.33
2017-09-08T19:33:53.978Z,6.10
2017-09-08T19:36:22.610Z,6.20
2017-09-08T19:38:51.107Z,6.83
2017-09-08T19:41:20.370Z,5.60
2017-09-08T19:43:48.659Z,6.43
2017-09-08T19:46:17.133Z,5.97
2017-09-08T19:48:45.637Z,5.63
2017-09-08T19:51:15.059Z,6.37
2017-09-08T19:53:43.542Z,6.10
2017-09-08T19:56:12.343Z,6.70
2017-09-08T19:58:40.801Z,6.53
2017-09-08T20:01:10.040Z,5.80
2017-09-08T20:03:38.513Z,5.70
2017-09-08T20:06:06.613Z,5.80
2017-09-08T20:08:35.101Z,6.13
2017-09-08T20:11:03.553Z,6.40
2017-09-08T20:13:32.008Z,5.60
2017-09-08T20:16:00.487Z,6.90
2017-09-08T20:18:28.933Z,6.30
2017-09-08T20:20:58.280Z,6.03
2017-09-08T20:23:26.745Z,5.63
2017-09-08T20:25:55.197Z,6.10
2017-09-08T20:28:24.435Z,5.83
2017-09-08T20:30:52.918Z,5.97
2017-09-08T20:33:21.380Z,6.90
2017-09-08T20:35:49.844Z,7.60
2017-09-08T20:38:18.316Z,9.17
2017-09-08T20:40:47.540Z,9.80
2017-09-08T20:43:16.022Z,9.90
2017-09-08T20:45:44.500Z,8.60
2017-09-08T20:48:13.082Z,8.40
2017-09-08T20:50:41.536Z,10.77
2017-09-08T20:53:10.786Z,11.90
2017-09-08T20:55:39.240Z,12.33
2017-09-08T20:58:07.698Z,10.87
2017-09-08T21:00:36.945Z,10.13
2017-09-08T21:03:05.396Z,9.37
2017-09-08T21:05:33.137Z,9.60
2017-09-08T21:08:01.695Z,10.23
2017-09-08T21:10:30.233Z,8.00
2017-09-08T21:12:58.145Z,8.20
2017-09-08T21:15:27.031Z,8.10
2017-09-08T21:17:55.478Z,8.10
2017-09-08T21:20:24.248Z,7.00
2017-09-08T21:22:52.545Z,8.70
2017-09-08T21:25:20.996Z,8.23
2017-09-08T21:27:49.461Z,8.90
2017-09-08T21:30:17.936Z,8.57
2017-09-08T21:32:47.144Z,8.23
2017-09-08T21:35:15.614Z,8.00
2017-09-08T21:37:44.104Z,7.70
2017-09-08T21:40:12.556Z,9.20
2017-09-08T21:42:41.788Z,8.30
2017-09-08T21:45:10.273Z,8.27
2017-09-08T21:47:38.746Z,6.97
2017-09-08T21:50:07.222Z,7.93
2017-09-08T21:52:35.787Z,8.30
2017-09-08T21:55:04.268Z,8.73
2017-09-08T21:57:33.498Z,8.00
2017-09-08T22:00:01.982Z,7.77
2017-09-08T22:02:30.464Z,7.70
2017-09-08T22:04:59.053Z,7.03
2017-09-08T22:07:27.678Z,6.97
2017-09-08T22:09:57.015Z,6.90
2017-09-08T22:12:25.444Z,7.73
2017-09-08T22:14:53.940Z,7.40
2017-09-08T22:17:23.162Z,7.20
2017-09-08T22:19:51.639Z,8.00
2017-09-08T22:22:20.124Z,10.77
2017-09-08T22:24:48.590Z,11.50
2017-09-08T22:27:17.860Z,13.27
2017-09-08T22:29:46.360Z,12.80
2017-09-08T22:32:15.582Z,13.93
2017-09-08T22:34:44.056Z,12.00
2017-09-08T22:37:12.532Z,11.00
2017-09-08T22:39:40.999Z,10.33
2017-09-08T22:42:10.247Z,11.10
2017-09-08T22:44:38.720Z,9.57
2017-09-08T22:47:07.189Z,9.67
2017-09-08T22:49:35.641Z,9.60
2017-09-08T22:52:04.869Z,10.17
2017-09-08T22:54:33.325Z,9.00
2017-09-08T22:57:01.781Z,10.63
2017-09-08T22:59:31.009Z,9.83
2017-09-08T23:01:59.453Z,9.77
2017-09-08T23:04:28.793Z,9.67
2017-09-08T23:06:57.265Z,10.17
2017-09-08T23:09:25.721Z,9.30
2017-09-08T23:11:54.932Z,8.07
2017-09-08T23:14:23.401Z,8.37
2017-09-08T23:16:52.753Z,9.47
2017-09-08T23:19:21.196Z,7.93
2017-09-08T23:21:49.660Z,8.70
2017-09-08T23:24:18.943Z,8.40
2017-09-08T23:26:48.161Z,9.10
2017-09-08T23:29:17.395Z,7.67
2017-09-08T23:31:45.895Z,7.77
2017-09-08T23:34:14.340Z,7.30
2017-09-08T23:36:42.808Z,7.20
2017-09-08T23:39:11.320Z,7.53
2017-09-08T23:41:39.776Z,8.43
2017-09-08T23:44:08.242Z,7.50
2017-09-08T23:46:36.729Z,6.80
2017-09-08T23:49:05.172Z,7.10
2017-09-08T23:51:33.640Z,7.70
2017-09-08T23:54:02.144Z,6.87
2017-09-08T23:56:31.364Z,7.20
2017-09-08T23:58:59.823Z,7.03
